sensor_id;sensor_type;location;lat;lon;timestamp;temperature;humidity
18880;DHT22;9572;52.378;13.404;2023-02-28T00:00:09;1.50;99.90
18880;DHT22;9572;52.378;13.404;2023-02-28T00:02:39;1.50;99.90
18880;DHT22;9572;52.378;13.404;2023-02-28T00:05:07;1.50;99.90
18880;DHT22;9572;52.378;13.404;2023-02-28T00:07:35;1.50;99.90
18880;DHT22;9572;52.378;13.404;2023-02-28T00:10:03;1.60;99.90
18880;DHT22;9572;52.378;13.404;2023-02-28T00:12:31;1.60;99.90
18880;DHT22;9572;52.378;13.404;2023-02-28T00:14:58;1.60;99.90
18880;DHT22;9572;52.378;13.404;2023-02-28T00:17:25;1.50;99.90
18880;DHT22;9572;52.378;13.404;2023-02-28T00:19:53;1.50;99.90
18880;DHT22;9572;52.378;13.404;2023-02-28T00:22:21;1.50;99.90
18880;DHT22;9572;52.378;13.404;2023-02-28T00:24:48;1.50;99.90
18880;DHT22;9572;52.378;13.404;2023-02-28T00:27:15;1.50;99.90
18880;DHT22;9572;52.378;13.404;2023-02-28T00:29:41;1.50;99.90
18880;DHT22;9572;52.378;13.404;2023-02-28T00:32:08;1.50;99.90
18880;DHT22;9572;52.378;13.404;2023-02-28T00:34:35;1.50;99.90
18880;DHT22;9572;52.378;13.404;2023-02-28T00:37:05;1.50;99.90
18880;DHT22;9572;52.378;13.404;2023-02-28T00:39:34;1.50;99.90
18880;DHT22;9572;52.378;13.404;2023-02-28T00:42:01;1.50;99.90
18880;DHT22;9572;52.378;13.404;2023-02-28T00:44:29;1.50;99.90
18880;DHT22;9572;52.378;13.404;2023-02-28T00:46:56;1.40;99.90
18880;DHT22;9572;52.378;13.404;2023-02-28T00:49:23;1.50;99.90
18880;DHT22;9572;52.378;13.404;2023-02-28T00:51:50;1.50;99.90
18880;DHT22;9572;52.378;13.404;2023-02-28T00:54:19;1.50;99.90
18880;DHT22;9572;52.378;13.404;2023-02-28T00:56:46;1.50;99.90
18880;DHT22;9572;52.378;13.404;2023-02-28T00:59:13;1.40;99.90
18880;DHT22;9572;52.378;13.404;2023-02-28T01:01:41;1.50;99.90
18880;DHT22;9572;52.378;13.404;2023-02-28T01:04:08;1.40;99.90
18880;DHT22;9572;52.378;13.404;2023-02-28T01:06:35;1.40;99.90
18880;DHT22;9572;52.378;13.404;2023-02-28T01:09:04;1.40;99.90
18880;DHT22;9572;52.378;13.404;2023-02-28T01:11:33;1.50;99.90
18880;DHT22;9572;52.378;13.404;2023-02-28T01:14:00;1.50;99.90
18880;DHT22;9572;52.378;13.404;2023-02-28T01:16:27;1.50;99.90
18880;DHT22;9572;52.378;13.404;2023-02-28T01:18:54;1.40;99.90
18880;DHT22;9572;52.378;13.404;2023-02-28T01:21:21;1.40;99.90
18880;DHT22;9572;52.378;13.404;2023-02-28T01:23:49;1.40;99.90
18880;DHT22;9572;52.378;13.404;2023-02-28T01:26:17;1.30;99.90
18880;DHT22;9572;52.378;13.404;2023-02-28T01:28:46;1.30;99.90
18880;DHT22;9572;52.378;13.404;2023-02-28T01:31:14;1.30;99.90
18880;DHT22;9572;52.378;13.404;2023-02-28T01:33:41;1.40;99.90
18880;DHT22;9572;52.378;13.404;2023-02-28T01:36:11;1.40;99.90
18880;DHT22;9572;52.378;13.404;2023-02-28T01:38:39;1.50;99.90
18880;DHT22;9572;52.378;13.404;2023-02-28T01:41:07;1.50;99.90
18880;DHT22;9572;52.378;13.404;2023-02-28T01:43:55;1.50;99.90
18880;DHT22;9572;52.378;13.404;2023-02-28T01:46:22;1.40;99.90
18880;DHT22;9572;52.378;13.404;2023-02-28T01:48:51;1.40;99.90
18880;DHT22;9572;52.378;13.404;2023-02-28T01:51:22;1.30;99.90
18880;DHT22;9572;52.378;13.404;2023-02-28T01:53:54;1.30;99.90
18880;DHT22;9572;52.378;13.404;2023-02-28T01:56:25;1.20;99.90
18880;DHT22;9572;52.378;13.404;2023-02-28T01:58:55;1.20;99.90
18880;DHT22;9572;52.378;13.404;2023-02-28T02:01:23;1.20;99.90
18880;DHT22;9572;52.378;13.404;2023-02-28T02:03:54;1.20;99.90
18880;DHT22;9572;52.378;13.404;2023-02-28T02:06:22;1.10;99.90
18880;DHT22;9572;52.378;13.404;2023-02-28T02:08:49;1.20;99.90
18880;DHT22;9572;52.378;13.404;2023-02-28T02:11:19;1.20;99.90
18880;DHT22;9572;52.378;13.404;2023-02-28T02:17:08;1.10;99.90
18880;DHT22;9572;52.378;13.404;2023-02-28T02:20:11;1.10;99.90
18880;DHT22;9572;52.378;13.404;2023-02-28T02:23:12;1.00;99.90
18880;DHT22;9572;52.378;13.404;2023-02-28T02:25:50;1.00;99.90
18880;DHT22;9572;52.378;13.404;2023-02-28T02:31:43;0.90;99.90
18880;DHT22;9572;52.378;13.404;2023-02-28T02:34:41;0.80;99.90
18880;DHT22;9572;52.378;13.404;2023-02-28T02:37:18;0.70;99.90
18880;DHT22;9572;52.378;13.404;2023-02-28T02:39:52;0.70;99.90
18880;DHT22;9572;52.378;13.404;2023-02-28T02:42:25;0.70;99.90
18880;DHT22;9572;52.378;13.404;2023-02-28T02:44:57;0.70;99.90
18880;DHT22;9572;52.378;13.404;2023-02-28T02:47:27;0.70;99.90
18880;DHT22;9572;52.378;13.404;2023-02-28T02:50:01;0.50;99.90
18880;DHT22;9572;52.378;13.404;2023-02-28T02:52:33;0.50;99.90
18880;DHT22;9572;52.378;13.404;2023-02-28T02:55:02;0.50;99.90
18880;DHT22;9572;52.378;13.404;2023-02-28T02:57:33;0.40;99.90
18880;DHT22;9572;52.378;13.404;2023-02-28T03:00:04;0.40;99.90
18880;DHT22;9572;52.378;13.404;2023-02-28T03:02:34;0.40;99.90
18880;DHT22;9572;52.378;13.404;2023-02-28T03:05:08;0.30;99.90
18880;DHT22;9572;52.378;13.404;2023-02-28T03:07:35;0.30;99.90
18880;DHT22;9572;52.378;13.404;2023-02-28T03:10:03;0.20;99.90
18880;DHT22;9572;52.378;13.404;2023-02-28T03:12:40;0.20;99.90
18880;DHT22;9572;52.378;13.404;2023-02-28T03:15:11;0.20;99.90
18880;DHT22;9572;52.378;13.404;2023-02-28T03:17:54;0.10;99.90
18880;DHT22;9572;52.378;13.404;2023-02-28T03:20:35;0.00;99.90
18880;DHT22;9572;52.378;13.404;2023-02-28T03:23:13;-0.10;99.90
18880;DHT22;9572;52.378;13.404;2023-02-28T03:25:54;-0.10;99.90
18880;DHT22;9572;52.378;13.404;2023-02-28T03:28:31;-0.10;99.90
18880;DHT22;9572;52.378;13.404;2023-02-28T03:31:02;-0.10;99.90
18880;DHT22;9572;52.378;13.404;2023-02-28T03:33:34;-0.10;99.90
18880;DHT22;9572;52.378;13.404;2023-02-28T03:36:06;-0.10;99.90
18880;DHT22;9572;52.378;13.404;2023-02-28T03:38:37;-0.10;99.90
18880;DHT22;9572;52.378;13.404;2023-02-28T03:41:10;-0.10;99.90
18880;DHT22;9572;52.378;13.404;2023-02-28T03:43:43;-0.10;99.90
18880;DHT22;9572;52.378;13.404;2023-02-28T03:46:15;-0.20;99.90
18880;DHT22;9572;52.378;13.404;2023-02-28T03:48:51;-0.20;99.90
18880;DHT22;9572;52.378;13.404;2023-02-28T03:51:23;-0.30;99.90
18880;DHT22;9572;52.378;13.404;2023-02-28T03:53:53;-0.30;99.90
18880;DHT22;9572;52.378;13.404;2023-02-28T03:56:24;-0.30;99.90
18880;DHT22;9572;52.378;13.404;2023-02-28T03:58:57;-0.30;99.90
18880;DHT22;9572;52.378;13.404;2023-02-28T04:01:30;-0.30;99.90
18880;DHT22;9572;52.378;13.404;2023-02-28T04:03:58;-0.30;99.90
18880;DHT22;9572;52.378;13.404;2023-02-28T04:06:27;-0.40;99.90
18880;DHT22;9572;52.378;13.404;2023-02-28T04:08:56;-0.40;99.90
18880;DHT22;9572;52.378;13.404;2023-02-28T04:11:27;-0.40;99.90
18880;DHT22;9572;52.378;13.404;2023-02-28T04:13:59;-0.40;99.90
18880;DHT22;9572;52.378;13.404;2023-02-28T04:16:25;-0.50;99.90
18880;DHT22;9572;52.378;13.404;2023-02-28T04:18:53;-0.50;99.90
18880;DHT22;9572;52.378;13.404;2023-02-28T04:21:29;-0.50;99.90
18880;DHT22;9572;52.378;13.404;2023-02-28T04:23:56;-0.60;99.90
18880;DHT22;9572;52.378;13.404;2023-02-28T04:26:28;-0.60;99.90
18880;DHT22;9572;52.378;13.404;2023-02-28T04:28:56;-0.60;99.90
18880;DHT22;9572;52.378;13.404;2023-02-28T04:31:23;-0.60;99.90
18880;DHT22;9572;52.378;13.404;2023-02-28T04:33:50;-0.60;99.90
18880;DHT22;9572;52.378;13.404;2023-02-28T04:36:17;-0.70;99.90
18880;DHT22;9572;52.378;13.404;2023-02-28T04:38:46;-0.60;99.90
18880;DHT22;9572;52.378;13.404;2023-02-28T04:41:13;-0.70;99.90
18880;DHT22;9572;52.378;13.404;2023-02-28T04:43:40;-0.80;99.90
18880;DHT22;9572;52.378;13.404;2023-02-28T04:46:07;-0.70;99.90
18880;DHT22;9572;52.378;13.404;2023-02-28T04:48:36;-0.80;99.90
18880;DHT22;9572;52.378;13.404;2023-02-28T04:51:04;-0.80;99.90
18880;DHT22;9572;52.378;13.404;2023-02-28T04:53:31;-0.80;99.90
18880;DHT22;9572;52.378;13.404;2023-02-28T04:55:59;-0.80;99.90
18880;DHT22;9572;52.378;13.404;2023-02-28T04:58:27;-0.80;99.90
18880;DHT22;9572;52.378;13.404;2023-02-28T05:01:01;-0.80;99.90
18880;DHT22;9572;52.378;13.404;2023-02-28T05:03:28;-0.90;99.90
18880;DHT22;9572;52.378;13.404;2023-02-28T05:05:55;-0.90;99.90
18880;DHT22;9572;52.378;13.404;2023-02-28T05:08:22;-0.90;99.90
18880;DHT22;9572;52.378;13.404;2023-02-28T05:10:49;-0.90;99.90
18880;DHT22;9572;52.378;13.404;2023-02-28T05:13:17;-1.00;99.90
18880;DHT22;9572;52.378;13.404;2023-02-28T05:15:44;-1.00;99.90
18880;DHT22;9572;52.378;13.404;2023-02-28T05:18:10;-1.00;99.90
18880;DHT22;9572;52.378;13.404;2023-02-28T05:20:37;-1.10;99.90
18880;DHT22;9572;52.378;13.404;2023-02-28T05:23:04;-1.00;99.90
18880;DHT22;9572;52.378;13.404;2023-02-28T05:25:31;-1.10;99.90
18880;DHT22;9572;52.378;13.404;2023-02-28T05:27:58;-1.10;99.90
18880;DHT22;9572;52.378;13.404;2023-02-28T05:30:26;-1.10;99.90
18880;DHT22;9572;52.378;13.404;2023-02-28T05:32:53;-1.10;99.90
18880;DHT22;9572;52.378;13.404;2023-02-28T05:35:20;-1.10;99.90
18880;DHT22;9572;52.378;13.404;2023-02-28T05:37:47;-1.10;99.90
18880;DHT22;9572;52.378;13.404;2023-02-28T05:40:14;-1.10;99.90
18880;DHT22;9572;52.378;13.404;2023-02-28T05:42:41;-1.10;99.90
18880;DHT22;9572;52.378;13.404;2023-02-28T05:45:09;-1.10;99.90
18880;DHT22;9572;52.378;13.404;2023-02-28T05:47:37;-1.10;99.90
18880;DHT22;9572;52.378;13.404;2023-02-28T05:50:05;-1.10;99.90
18880;DHT22;9572;52.378;13.404;2023-02-28T05:52:32;-1.10;99.90
18880;DHT22;9572;52.378;13.404;2023-02-28T05:54:59;-1.20;99.90
18880;DHT22;9572;52.378;13.404;2023-02-28T05:57:26;-1.20;99.90
18880;DHT22;9572;52.378;13.404;2023-02-28T05:59:53;-1.20;99.90
18880;DHT22;9572;52.378;13.404;2023-02-28T06:02:20;-1.20;99.90
18880;DHT22;9572;52.378;13.404;2023-02-28T06:04:48;-1.20;99.90
18880;DHT22;9572;52.378;13.404;2023-02-28T06:07:15;-1.20;99.90
18880;DHT22;9572;52.378;13.404;2023-02-28T06:09:43;-1.20;99.90
18880;DHT22;9572;52.378;13.404;2023-02-28T06:12:10;-1.20;99.90
18880;DHT22;9572;52.378;13.404;2023-02-28T06:14:36;-1.20;99.90
18880;DHT22;9572;52.378;13.404;2023-02-28T06:17:04;-1.20;99.90
18880;DHT22;9572;52.378;13.404;2023-02-28T06:19:31;-1.30;99.90
18880;DHT22;9572;52.378;13.404;2023-02-28T06:22:00;-1.20;99.90
18880;DHT22;9572;52.378;13.404;2023-02-28T06:24:27;-1.20;99.90
18880;DHT22;9572;52.378;13.404;2023-02-28T06:26:57;-1.20;99.90
18880;DHT22;9572;52.378;13.404;2023-02-28T06:29:30;-1.10;99.90
18880;DHT22;9572;52.378;13.404;2023-02-28T06:31:57;-1.10;99.90
18880;DHT22;9572;52.378;13.404;2023-02-28T06:34:24;-1.10;99.90
18880;DHT22;9572;52.378;13.404;2023-02-28T06:36:51;-1.00;99.90
18880;DHT22;9572;52.378;13.404;2023-02-28T06:39:20;-1.00;99.90
18880;DHT22;9572;52.378;13.404;2023-02-28T06:41:47;-1.00;99.90
18880;DHT22;9572;52.378;13.404;2023-02-28T06:44:15;-1.00;99.90
18880;DHT22;9572;52.378;13.404;2023-02-28T06:46:43;-0.90;99.90
18880;DHT22;9572;52.378;13.404;2023-02-28T06:49:11;-0.90;99.90
18880;DHT22;9572;52.378;13.404;2023-02-28T06:51:39;-0.90;99.90
18880;DHT22;9572;52.378;13.404;2023-02-28T06:54:07;-0.60;99.90
18880;DHT22;9572;52.378;13.404;2023-02-28T06:56:36;-0.40;99.90
18880;DHT22;9572;52.378;13.404;2023-02-28T06:59:03;0.20;99.90
18880;DHT22;9572;52.378;13.404;2023-02-28T07:01:30;0.90;99.90
18880;DHT22;9572;52.378;13.404;2023-02-28T07:03:59;1.60;99.90
18880;DHT22;9572;52.378;13.404;2023-02-28T07:06:26;1.90;99.90
18880;DHT22;9572;52.378;13.404;2023-02-28T07:08:53;2.10;99.90
18880;DHT22;9572;52.378;13.404;2023-02-28T07:11:21;2.50;99.90
18880;DHT22;9572;52.378;13.404;2023-02-28T07:13:52;2.90;99.90
18880;DHT22;9572;52.378;13.404;2023-02-28T07:16:19;3.20;99.90
18880;DHT22;9572;52.378;13.404;2023-02-28T07:18:46;3.50;99.90
18880;DHT22;9572;52.378;13.404;2023-02-28T07:21:13;3.90;99.90
18880;DHT22;9572;52.378;13.404;2023-02-28T07:23:40;4.50;99.90
18880;DHT22;9572;52.378;13.404;2023-02-28T07:26:11;4.70;99.90
18880;DHT22;9572;52.378;13.404;2023-02-28T07:28:40;4.90;99.90
18880;DHT22;9572;52.378;13.404;2023-02-28T07:31:09;4.80;99.90
18880;DHT22;9572;52.378;13.404;2023-02-28T07:33:37;4.50;99.90
18880;DHT22;9572;52.378;13.404;2023-02-28T07:36:05;4.10;99.90
18880;DHT22;9572;52.378;13.404;2023-02-28T07:38:34;3.90;99.90
18880;DHT22;9572;52.378;13.404;2023-02-28T07:41:01;3.80;99.90
18880;DHT22;9572;52.378;13.404;2023-02-28T07:43:30;3.60;99.90
18880;DHT22;9572;52.378;13.404;2023-02-28T07:46:01;3.30;99.90
18880;DHT22;9572;52.378;13.404;2023-02-28T07:48:30;3.20;99.90
18880;DHT22;9572;52.378;13.404;2023-02-28T07:50:57;3.40;99.90
18880;DHT22;9572;52.378;13.404;2023-02-28T07:53:25;3.60;99.90
18880;DHT22;9572;52.378;13.404;2023-02-28T07:55:54;3.80;99.90
18880;DHT22;9572;52.378;13.404;2023-02-28T07:58:21;3.70;99.90
18880;DHT22;9572;52.378;13.404;2023-02-28T08:00:48;3.40;99.90
18880;DHT22;9572;52.378;13.404;2023-02-28T08:03:16;3.10;99.90
18880;DHT22;9572;52.378;13.404;2023-02-28T08:05:44;3.10;99.90
18880;DHT22;9572;52.378;13.404;2023-02-28T08:08:11;3.40;99.90
18880;DHT22;9572;52.378;13.404;2023-02-28T08:10:38;3.40;99.90
18880;DHT22;9572;52.378;13.404;2023-02-28T08:13:05;3.10;99.90
18880;DHT22;9572;52.378;13.404;2023-02-28T08:15:32;2.90;99.90
18880;DHT22;9572;52.378;13.404;2023-02-28T08:17:59;2.60;99.90
18880;DHT22;9572;52.378;13.404;2023-02-28T08:20:26;2.50;99.90
18880;DHT22;9572;52.378;13.404;2023-02-28T08:22:54;2.40;99.90
18880;DHT22;9572;52.378;13.404;2023-02-28T08:25:21;2.30;99.90
18880;DHT22;9572;52.378;13.404;2023-02-28T08:27:50;2.20;99.90
18880;DHT22;9572;52.378;13.404;2023-02-28T08:30:17;2.10;99.90
18880;DHT22;9572;52.378;13.404;2023-02-28T08:32:44;2.10;99.90
18880;DHT22;9572;52.378;13.404;2023-02-28T08:35:11;2.10;99.90
18880;DHT22;9572;52.378;13.404;2023-02-28T08:37:38;2.20;99.90
18880;DHT22;9572;52.378;13.404;2023-02-28T08:40:08;2.20;99.90
18880;DHT22;9572;52.378;13.404;2023-02-28T08:42:35;2.30;99.90
18880;DHT22;9572;52.378;13.404;2023-02-28T08:45:02;2.20;99.90
18880;DHT22;9572;52.378;13.404;2023-02-28T08:47:29;2.30;99.90
18880;DHT22;9572;52.378;13.404;2023-02-28T08:49:56;2.30;99.90
18880;DHT22;9572;52.378;13.404;2023-02-28T08:52:23;2.40;99.90
18880;DHT22;9572;52.378;13.404;2023-02-28T08:54:50;2.40;99.90
18880;DHT22;9572;52.378;13.404;2023-02-28T08:57:18;2.50;99.90
18880;DHT22;9572;52.378;13.404;2023-02-28T08:59:45;2.50;99.90
18880;DHT22;9572;52.378;13.404;2023-02-28T09:02:12;2.50;99.90
18880;DHT22;9572;52.378;13.404;2023-02-28T09:04:39;2.40;99.90
18880;DHT22;9572;52.378;13.404;2023-02-28T09:07:07;2.60;99.90
18880;DHT22;9572;52.378;13.404;2023-02-28T09:09:34;2.60;99.90
18880;DHT22;9572;52.378;13.404;2023-02-28T09:12:00;2.60;99.90
18880;DHT22;9572;52.378;13.404;2023-02-28T09:14:29;2.70;99.90
18880;DHT22;9572;52.378;13.404;2023-02-28T09:16:56;2.80;99.90
18880;DHT22;9572;52.378;13.404;2023-02-28T09:19:23;2.70;99.90
18880;DHT22;9572;52.378;13.404;2023-02-28T09:21:50;2.80;99.90
18880;DHT22;9572;52.378;13.404;2023-02-28T09:24:17;2.80;99.90
18880;DHT22;9572;52.378;13.404;2023-02-28T09:26:45;2.80;99.90
18880;DHT22;9572;52.378;13.404;2023-02-28T09:29:12;2.90;99.90
18880;DHT22;9572;52.378;13.404;2023-02-28T09:31:41;2.90;99.90
18880;DHT22;9572;52.378;13.404;2023-02-28T09:34:08;3.00;99.90
18880;DHT22;9572;52.378;13.404;2023-02-28T09:36:35;3.10;99.90
18880;DHT22;9572;52.378;13.404;2023-02-28T09:39:03;3.10;99.90
18880;DHT22;9572;52.378;13.404;2023-02-28T09:41:37;3.30;99.90
18880;DHT22;9572;52.378;13.404;2023-02-28T09:44:15;3.20;99.90
18880;DHT22;9572;52.378;13.404;2023-02-28T09:46:48;3.10;99.90
18880;DHT22;9572;52.378;13.404;2023-02-28T09:49:19;3.10;99.90
18880;DHT22;9572;52.378;13.404;2023-02-28T09:51:51;3.10;99.90
18880;DHT22;9572;52.378;13.404;2023-02-28T09:54:23;3.20;99.90
18880;DHT22;9572;52.378;13.404;2023-02-28T09:56:53;3.30;99.90
18880;DHT22;9572;52.378;13.404;2023-02-28T09:59:35;3.40;99.90
18880;DHT22;9572;52.378;13.404;2023-02-28T10:02:17;3.50;99.90
18880;DHT22;9572;52.378;13.404;2023-02-28T10:04:48;3.50;99.90
18880;DHT22;9572;52.378;13.404;2023-02-28T10:07:24;3.50;99.90
18880;DHT22;9572;52.378;13.404;2023-02-28T10:09:57;3.40;99.90
18880;DHT22;9572;52.378;13.404;2023-02-28T10:12:26;3.50;99.90
18880;DHT22;9572;52.378;13.404;2023-02-28T10:14:54;3.50;99.90
18880;DHT22;9572;52.378;13.404;2023-02-28T10:17:26;3.60;99.90
18880;DHT22;9572;52.378;13.404;2023-02-28T10:19:59;3.60;99.90
18880;DHT22;9572;52.378;13.404;2023-02-28T10:22:38;3.50;99.90
18880;DHT22;9572;52.378;13.404;2023-02-28T10:25:18;3.50;99.90
18880;DHT22;9572;52.378;13.404;2023-02-28T10:27:45;3.60;99.90
18880;DHT22;9572;52.378;13.404;2023-02-28T10:30:13;3.70;99.90
18880;DHT22;9572;52.378;13.404;2023-02-28T10:32:47;3.60;99.90
18880;DHT22;9572;52.378;13.404;2023-02-28T10:35:17;3.60;99.90
18880;DHT22;9572;52.378;13.404;2023-02-28T10:37:46;3.60;99.90
18880;DHT22;9572;52.378;13.404;2023-02-28T10:40:28;3.70;99.90
18880;DHT22;9572;52.378;13.404;2023-02-28T10:42:56;3.70;99.90
18880;DHT22;9572;52.378;13.404;2023-02-28T10:45:24;3.70;99.90
18880;DHT22;9572;52.378;13.404;2023-02-28T10:47:55;3.80;99.90
18880;DHT22;9572;52.378;13.404;2023-02-28T10:50:39;3.90;99.90
18880;DHT22;9572;52.378;13.404;2023-02-28T10:53:22;3.90;99.90
18880;DHT22;9572;52.378;13.404;2023-02-28T10:55:57;4.00;99.90
18880;DHT22;9572;52.378;13.404;2023-02-28T10:58:26;4.00;99.90
18880;DHT22;9572;52.378;13.404;2023-02-28T11:00:54;4.00;99.90
18880;DHT22;9572;52.378;13.404;2023-02-28T11:03:30;4.10;99.90
18880;DHT22;9572;52.378;13.404;2023-02-28T11:05:58;4.10;99.90
18880;DHT22;9572;52.378;13.404;2023-02-28T11:08:25;4.20;99.90
18880;DHT22;9572;52.378;13.404;2023-02-28T11:10:57;4.20;99.90
18880;DHT22;9572;52.378;13.404;2023-02-28T11:13:27;4.20;99.90
18880;DHT22;9572;52.378;13.404;2023-02-28T11:15:57;4.30;99.90
18880;DHT22;9572;52.378;13.404;2023-02-28T11:18:29;4.30;99.90
18880;DHT22;9572;52.378;13.404;2023-02-28T11:20:59;4.30;99.90
18880;DHT22;9572;52.378;13.404;2023-02-28T11:23:30;4.40;99.90
18880;DHT22;9572;52.378;13.404;2023-02-28T11:26:01;4.50;99.90
18880;DHT22;9572;52.378;13.404;2023-02-28T11:28:31;4.40;99.90
18880;DHT22;9572;52.378;13.404;2023-02-28T11:31:04;4.40;99.90
18880;DHT22;9572;52.378;13.404;2023-02-28T11:33:41;4.30;99.90
18880;DHT22;9572;52.378;13.404;2023-02-28T11:36:12;4.40;99.90
18880;DHT22;9572;52.378;13.404;2023-02-28T11:38:41;4.50;99.90
18880;DHT22;9572;52.378;13.404;2023-02-28T11:41:27;4.40;99.90
18880;DHT22;9572;52.378;13.404;2023-02-28T11:44:05;4.60;99.90
18880;DHT22;9572;52.378;13.404;2023-02-28T11:46:37;4.60;99.90
18880;DHT22;9572;52.378;13.404;2023-02-28T11:49:19;4.50;99.90
18880;DHT22;9572;52.378;13.404;2023-02-28T11:51:51;4.60;99.90
18880;DHT22;9572;52.378;13.404;2023-02-28T11:54:30;4.70;99.90
18880;DHT22;9572;52.378;13.404;2023-02-28T11:57:10;4.80;99.90
18880;DHT22;9572;52.378;13.404;2023-02-28T11:59:51;4.70;99.90
18880;DHT22;9572;52.378;13.404;2023-02-28T12:02:24;4.70;99.90
18880;DHT22;9572;52.378;13.404;2023-02-28T12:05:09;4.60;99.90
18880;DHT22;9572;52.378;13.404;2023-02-28T12:07:45;4.60;99.90
18880;DHT22;9572;52.378;13.404;2023-02-28T12:10:21;4.60;99.90
18880;DHT22;9572;52.378;13.404;2023-02-28T12:12:59;4.60;99.90
18880;DHT22;9572;52.378;13.404;2023-02-28T12:18:38;4.70;99.90
18880;DHT22;9572;52.378;13.404;2023-02-28T12:21:17;4.80;99.90
18880;DHT22;9572;52.378;13.404;2023-02-28T12:24:10;4.90;99.90
18880;DHT22;9572;52.378;13.404;2023-02-28T12:26:41;4.80;99.90
18880;DHT22;9572;52.378;13.404;2023-02-28T12:29:14;4.80;99.90
18880;DHT22;9572;52.378;13.404;2023-02-28T12:31:47;4.90;99.90
18880;DHT22;9572;52.378;13.404;2023-02-28T12:34:19;4.90;99.90
18880;DHT22;9572;52.378;13.404;2023-02-28T12:36:50;5.00;99.90
18880;DHT22;9572;52.378;13.404;2023-02-28T12:39:23;5.00;99.90
18880;DHT22;9572;52.378;13.404;2023-02-28T12:41:55;5.00;99.90
18880;DHT22;9572;52.378;13.404;2023-02-28T12:44:28;5.00;99.90
18880;DHT22;9572;52.378;13.404;2023-02-28T12:47:00;5.00;99.90
18880;DHT22;9572;52.378;13.404;2023-02-28T12:49:33;5.00;99.90
18880;DHT22;9572;52.378;13.404;2023-02-28T12:52:03;5.10;99.90
18880;DHT22;9572;52.378;13.404;2023-02-28T12:54:36;5.20;99.90
18880;DHT22;9572;52.378;13.404;2023-02-28T12:57:11;5.10;99.90
18880;DHT22;9572;52.378;13.404;2023-02-28T12:59:41;5.20;99.90
18880;DHT22;9572;52.378;13.404;2023-02-28T13:05:27;5.10;99.90
18880;DHT22;9572;52.378;13.404;2023-02-28T13:08:20;5.20;99.90
18880;DHT22;9572;52.378;13.404;2023-02-28T13:10:51;5.10;99.90
18880;DHT22;9572;52.378;13.404;2023-02-28T13:13:22;5.20;99.90
18880;DHT22;9572;52.378;13.404;2023-02-28T13:15:58;5.30;99.90
18880;DHT22;9572;52.378;13.404;2023-02-28T13:18:30;5.60;99.90
18880;DHT22;9572;52.378;13.404;2023-02-28T13:20:58;6.20;99.90
18880;DHT22;9572;52.378;13.404;2023-02-28T13:23:58;6.80;99.90
18880;DHT22;9572;52.378;13.404;2023-02-28T13:29:31;7.50;99.90
18880;DHT22;9572;52.378;13.404;2023-02-28T13:32:33;7.70;99.90
18880;DHT22;9572;52.378;13.404;2023-02-28T13:35:42;7.70;99.90
18880;DHT22;9572;52.378;13.404;2023-02-28T13:38:22;7.70;99.90
18880;DHT22;9572;52.378;13.404;2023-02-28T13:40:51;7.50;99.90
18880;DHT22;9572;52.378;13.404;2023-02-28T13:43:19;7.40;99.90
18880;DHT22;9572;52.378;13.404;2023-02-28T13:46:11;7.50;99.90
18880;DHT22;9572;52.378;13.404;2023-02-28T13:48:39;7.60;99.90
18880;DHT22;9572;52.378;13.404;2023-02-28T13:51:33;7.90;99.90
18880;DHT22;9572;52.378;13.404;2023-02-28T13:54:24;8.00;99.90
18880;DHT22;9572;52.378;13.404;2023-02-28T13:57:07;7.80;99.90
18880;DHT22;9572;52.378;13.404;2023-02-28T13:59:45;7.70;99.90
18880;DHT22;9572;52.378;13.404;2023-02-28T14:02:57;7.50;99.90
18880;DHT22;9572;52.378;13.404;2023-02-28T14:05:27;7.50;99.90
18880;DHT22;9572;52.378;13.404;2023-02-28T14:07:58;7.60;99.90
18880;DHT22;9572;52.378;13.404;2023-02-28T14:10:29;7.40;99.90
18880;DHT22;9572;52.378;13.404;2023-02-28T14:13:11;7.20;99.90
18880;DHT22;9572;52.378;13.404;2023-02-28T14:15:44;7.00;99.90
18880;DHT22;9572;52.378;13.404;2023-02-28T14:18:25;7.00;99.90
18880;DHT22;9572;52.378;13.404;2023-02-28T14:20:56;7.00;99.90
18880;DHT22;9572;52.378;13.404;2023-02-28T14:32:54;7.10;99.90
18880;DHT22;9572;52.378;13.404;2023-02-28T14:35:40;7.10;99.90
18880;DHT22;9572;52.378;13.404;2023-02-28T14:38:16;7.40;99.90
18880;DHT22;9572;52.378;13.404;2023-02-28T14:40:45;7.50;99.90
18880;DHT22;9572;52.378;13.404;2023-02-28T14:43:20;7.90;99.90
18880;DHT22;9572;52.378;13.404;2023-02-28T14:45:50;8.30;99.90
18880;DHT22;9572;52.378;13.404;2023-02-28T14:48:20;8.20;99.90
18880;DHT22;9572;52.378;13.404;2023-02-28T14:50:49;8.40;99.90
18880;DHT22;9572;52.378;13.404;2023-02-28T14:53:19;7.80;99.90
18880;DHT22;9572;52.378;13.404;2023-02-28T14:55:48;7.30;99.90
18880;DHT22;9572;52.378;13.404;2023-02-28T14:58:22;7.00;99.90
18880;DHT22;9572;52.378;13.404;2023-02-28T15:00:51;6.90;99.90
18880;DHT22;9572;52.378;13.404;2023-02-28T15:03:22;6.80;99.90
18880;DHT22;9572;52.378;13.404;2023-02-28T15:05:54;6.80;99.90
18880;DHT22;9572;52.378;13.404;2023-02-28T15:08:21;6.60;99.90
18880;DHT22;9572;52.378;13.404;2023-02-28T15:10:54;6.30;99.90
18880;DHT22;9572;52.378;13.404;2023-02-28T15:13:22;6.20;99.90
18880;DHT22;9572;52.378;13.404;2023-02-28T15:15:53;6.10;99.90
18880;DHT22;9572;52.378;13.404;2023-02-28T15:18:30;6.10;99.90
18880;DHT22;9572;52.378;13.404;2023-02-28T15:21:01;5.90;99.90
18880;DHT22;9572;52.378;13.404;2023-02-28T15:23:29;5.80;99.90
18880;DHT22;9572;52.378;13.404;2023-02-28T15:25:57;5.70;99.90
18880;DHT22;9572;52.378;13.404;2023-02-28T15:28:24;5.60;99.90
18880;DHT22;9572;52.378;13.404;2023-02-28T15:30:54;5.50;99.90
18880;DHT22;9572;52.378;13.404;2023-02-28T15:33:25;5.40;99.90
18880;DHT22;9572;52.378;13.404;2023-02-28T15:36:03;5.50;99.90
18880;DHT22;9572;52.378;13.404;2023-02-28T15:38:34;5.40;99.90
18880;DHT22;9572;52.378;13.404;2023-02-28T15:41:01;5.50;99.90
18880;DHT22;9572;52.378;13.404;2023-02-28T15:43:29;5.60;99.90
18880;DHT22;9572;52.378;13.404;2023-02-28T15:45:58;5.60;99.90
18880;DHT22;9572;52.378;13.404;2023-02-28T15:48:29;5.60;99.90
18880;DHT22;9572;52.378;13.404;2023-02-28T15:51:02;5.50;99.90
18880;DHT22;9572;52.378;13.404;2023-02-28T15:53:32;5.40;99.90
18880;DHT22;9572;52.378;13.404;2023-02-28T15:56:02;5.20;99.90
18880;DHT22;9572;52.378;13.404;2023-02-28T15:58:30;5.10;99.90
18880;DHT22;9572;52.378;13.404;2023-02-28T16:01:05;5.00;99.90
18880;DHT22;9572;52.378;13.404;2023-02-28T16:03:40;4.90;99.90
18880;DHT22;9572;52.378;13.404;2023-02-28T16:06:34;4.90;99.90
18880;DHT22;9572;52.378;13.404;2023-02-28T16:09:04;4.80;99.90
18880;DHT22;9572;52.378;13.404;2023-02-28T16:11:34;4.80;99.90
18880;DHT22;9572;52.378;13.404;2023-02-28T16:14:02;4.60;99.90
18880;DHT22;9572;52.378;13.404;2023-02-28T16:16:31;4.50;99.90
18880;DHT22;9572;52.378;13.404;2023-02-28T16:18:59;4.50;99.90
18880;DHT22;9572;52.378;13.404;2023-02-28T16:21:26;4.40;99.90
18880;DHT22;9572;52.378;13.404;2023-02-28T16:23:53;4.30;99.90
18880;DHT22;9572;52.378;13.404;2023-02-28T16:26:23;4.10;99.90
18880;DHT22;9572;52.378;13.404;2023-02-28T16:28:51;4.10;99.90
18880;DHT22;9572;52.378;13.404;2023-02-28T16:31:18;4.00;99.90